sensor_id;sensor_type;location;lat;lon;timestamp;temperature;humidity
6078;DHT22;3067;49.470;10.394;2023-08-17T00:01:58;24.60;63.70
6078;DHT22;3067;49.470;10.394;2023-08-17T00:04:25;24.50;63.90
6078;DHT22;3067;49.470;10.394;2023-08-17T00:06:52;24.40;64.10
6078;DHT22;3067;49.470;10.394;2023-08-17T00:09:19;24.20;64.50
6078;DHT22;3067;49.470;10.394;2023-08-17T00:11:47;24.00;65.00
6078;DHT22;3067;49.470;10.394;2023-08-17T00:14:15;23.80;65.60
6078;DHT22;3067;49.470;10.394;2023-08-17T00:16:42;23.70;66.10
6078;DHT22;3067;49.470;10.394;2023-08-17T00:19:10;23.60;66.20
6078;DHT22;3067;49.470;10.394;2023-08-17T00:21:37;23.70;66.30
6078;DHT22;3067;49.470;10.394;2023-08-17T00:24:05;23.70;66.40
6078;DHT22;3067;49.470;10.394;2023-08-17T00:26:32;23.80;66.40
6078;DHT22;3067;49.470;10.394;2023-08-17T00:28:59;23.60;66.70
6078;DHT22;3067;49.470;10.394;2023-08-17T00:31:26;23.30;67.00
6078;DHT22;3067;49.470;10.394;2023-08-17T00:33:53;22.90;67.50
6078;DHT22;3067;49.470;10.394;2023-08-17T00:36:21;22.60;68.50
6078;DHT22;3067;49.470;10.394;2023-08-17T00:38:48;22.50;69.00
6078;DHT22;3067;49.470;10.394;2023-08-17T00:41:15;22.30;69.40
6078;DHT22;3067;49.470;10.394;2023-08-17T00:43:42;22.20;69.70
6078;DHT22;3067;49.470;10.394;2023-08-17T00:46:10;22.10;70.00
6078;DHT22;3067;49.470;10.394;2023-08-17T00:48:38;22.00;70.40
6078;DHT22;3067;49.470;10.394;2023-08-17T00:51:05;22.00;70.40
6078;DHT22;3067;49.470;10.394;2023-08-17T00:53:34;21.90;70.00
6078;DHT22;3067;49.470;10.394;2023-08-17T00:56:01;21.90;70.10
6078;DHT22;3067;49.470;10.394;2023-08-17T00:58:29;21.70;70.30
6078;DHT22;3067;49.470;10.394;2023-08-17T01:00:56;21.70;70.30
6078;DHT22;3067;49.470;10.394;2023-08-17T01:03:24;21.70;70.50
6078;DHT22;3067;49.470;10.394;2023-08-17T01:05:55;21.70;70.40
6078;DHT22;3067;49.470;10.394;2023-08-17T01:08:22;21.70;70.20
6078;DHT22;3067;49.470;10.394;2023-08-17T01:10:57;21.70;70.00
6078;DHT22;3067;49.470;10.394;2023-08-17T01:13:32;21.70;70.10
6078;DHT22;3067;49.470;10.394;2023-08-17T01:16:02;21.70;70.00
6078;DHT22;3067;49.470;10.394;2023-08-17T01:18:35;21.70;70.30
6078;DHT22;3067;49.470;10.394;2023-08-17T01:21:06;21.80;70.30
6078;DHT22;3067;49.470;10.394;2023-08-17T01:23:34;21.80;69.90
6078;DHT22;3067;49.470;10.394;2023-08-17T01:26:01;21.90;69.70
6078;DHT22;3067;49.470;10.394;2023-08-17T01:28:29;21.90;69.60
6078;DHT22;3067;49.470;10.394;2023-08-17T01:30:59;21.80;69.50
6078;DHT22;3067;49.470;10.394;2023-08-17T01:33:31;21.70;69.60
6078;DHT22;3067;49.470;10.394;2023-08-17T01:36:04;21.70;69.70
6078;DHT22;3067;49.470;10.394;2023-08-17T01:38:34;21.60;69.80
6078;DHT22;3067;49.470;10.394;2023-08-17T01:41:03;21.50;70.00
6078;DHT22;3067;49.470;10.394;2023-08-17T01:43:31;21.60;70.10
6078;DHT22;3067;49.470;10.394;2023-08-17T01:45:59;21.50;70.00
6078;DHT22;3067;49.470;10.394;2023-08-17T01:48:26;21.40;70.30
6078;DHT22;3067;49.470;10.394;2023-08-17T01:50:53;21.30;70.90
6078;DHT22;3067;49.470;10.394;2023-08-17T01:53:20;21.10;71.40
6078;DHT22;3067;49.470;10.394;2023-08-17T01:55:49;21.10;71.50
6078;DHT22;3067;49.470;10.394;2023-08-17T01:58:16;21.10;71.50
6078;DHT22;3067;49.470;10.394;2023-08-17T02:00:43;21.10;71.60
6078;DHT22;3067;49.470;10.394;2023-08-17T02:03:10;21.10;71.70
6078;DHT22;3067;49.470;10.394;2023-08-17T02:05:37;20.90;72.20
6078;DHT22;3067;49.470;10.394;2023-08-17T02:08:04;20.90;72.30
6078;DHT22;3067;49.470;10.394;2023-08-17T02:10:31;20.90;72.20
6078;DHT22;3067;49.470;10.394;2023-08-17T02:13:00;21.00;72.20
6078;DHT22;3067;49.470;10.394;2023-08-17T02:15:27;21.10;71.90
6078;DHT22;3067;49.470;10.394;2023-08-17T02:17:54;21.10;71.80
6078;DHT22;3067;49.470;10.394;2023-08-17T02:20:21;21.10;71.80
6078;DHT22;3067;49.470;10.394;2023-08-17T02:22:48;21.10;71.70
6078;DHT22;3067;49.470;10.394;2023-08-17T02:25:15;21.20;71.40
6078;DHT22;3067;49.470;10.394;2023-08-17T02:27:42;21.10;71.60
6078;DHT22;3067;49.470;10.394;2023-08-17T02:30:12;21.00;72.00
6078;DHT22;3067;49.470;10.394;2023-08-17T02:32:39;21.00;72.00
6078;DHT22;3067;49.470;10.394;2023-08-17T02:35:07;21.00;72.00
6078;DHT22;3067;49.470;10.394;2023-08-17T02:37:34;21.00;72.10
6078;DHT22;3067;49.470;10.394;2023-08-17T02:40:01;21.10;72.10
6078;DHT22;3067;49.470;10.394;2023-08-17T02:42:30;21.10;71.90
6078;DHT22;3067;49.470;10.394;2023-08-17T02:44:57;21.20;71.40
6078;DHT22;3067;49.470;10.394;2023-08-17T02:47:25;21.30;71.20
6078;DHT22;3067;49.470;10.394;2023-08-17T02:49:52;21.30;71.10
6078;DHT22;3067;49.470;10.394;2023-08-17T02:52:19;21.30;71.40
6078;DHT22;3067;49.470;10.394;2023-08-17T02:54:46;21.30;71.10
6078;DHT22;3067;49.470;10.394;2023-08-17T02:57:13;21.40;70.90
6078;DHT22;3067;49.470;10.394;2023-08-17T02:59:40;21.50;70.50
6078;DHT22;3067;49.470;10.394;2023-08-17T03:02:07;21.50;70.20
6078;DHT22;3067;49.470;10.394;2023-08-17T03:04:36;21.50;69.70
6078;DHT22;3067;49.470;10.394;2023-08-17T03:07:03;21.50;69.60
6078;DHT22;3067;49.470;10.394;2023-08-17T03:09:30;21.30;69.70
6078;DHT22;3067;49.470;10.394;2023-08-17T03:11:57;21.10;70.20
6078;DHT22;3067;49.470;10.394;2023-08-17T03:14:24;21.10;70.50
6078;DHT22;3067;49.470;10.394;2023-08-17T03:16:51;21.10;70.30
6078;DHT22;3067;49.470;10.394;2023-08-17T03:19:18;21.00;70.20
6078;DHT22;3067;49.470;10.394;2023-08-17T03:21:47;20.90;70.30
6078;DHT22;3067;49.470;10.394;2023-08-17T03:24:14;20.80;70.50
6078;DHT22;3067;49.470;10.394;2023-08-17T03:26:41;20.80;70.50
6078;DHT22;3067;49.470;10.394;2023-08-17T03:29:08;20.60;70.70
6078;DHT22;3067;49.470;10.394;2023-08-17T03:31:35;20.50;71.30
6078;DHT22;3067;49.470;10.394;2023-08-17T03:34:02;20.50;71.40
6078;DHT22;3067;49.470;10.394;2023-08-17T03:36:30;20.50;71.50
6078;DHT22;3067;49.470;10.394;2023-08-17T03:38:58;20.50;71.40
6078;DHT22;3067;49.470;10.394;2023-08-17T03:41:25;20.60;71.10
6078;DHT22;3067;49.470;10.394;2023-08-17T03:43:52;20.70;70.70
6078;DHT22;3067;49.470;10.394;2023-08-17T03:46:19;20.60;70.70
6078;DHT22;3067;49.470;10.394;2023-08-17T03:48:46;20.50;71.00
6078;DHT22;3067;49.470;10.394;2023-08-17T03:51:13;20.50;71.40
6078;DHT22;3067;49.470;10.394;2023-08-17T03:53:40;20.50;71.60
6078;DHT22;3067;49.470;10.394;2023-08-17T03:56:09;20.50;71.60
6078;DHT22;3067;49.470;10.394;2023-08-17T03:58:36;20.50;71.70
6078;DHT22;3067;49.470;10.394;2023-08-17T04:01:03;20.60;71.40
6078;DHT22;3067;49.470;10.394;2023-08-17T04:03:32;20.60;70.80
6078;DHT22;3067;49.470;10.394;2023-08-17T04:06:04;20.70;70.40
6078;DHT22;3067;49.470;10.394;2023-08-17T04:08:32;20.80;69.90
6078;DHT22;3067;49.470;10.394;2023-08-17T04:10:59;20.80;69.50
6078;DHT22;3067;49.470;10.394;2023-08-17T04:13:27;20.90;69.10
6078;DHT22;3067;49.470;10.394;2023-08-17T04:15:54;20.80;68.70
6078;DHT22;3067;49.470;10.394;2023-08-17T04:18:21;20.80;68.80
6078;DHT22;3067;49.470;10.394;2023-08-17T04:20:48;20.70;69.00
6078;DHT22;3067;49.470;10.394;2023-08-17T04:23:15;20.70;69.30
6078;DHT22;3067;49.470;10.394;2023-08-17T04:25:44;20.60;69.40
6078;DHT22;3067;49.470;10.394;2023-08-17T04:28:11;20.70;69.10
6078;DHT22;3067;49.470;10.394;2023-08-17T04:30:39;20.60;69.10
6078;DHT22;3067;49.470;10.394;2023-08-17T04:33:06;20.60;69.20
6078;DHT22;3067;49.470;10.394;2023-08-17T04:35:34;20.60;69.10
6078;DHT22;3067;49.470;10.394;2023-08-17T04:38:02;20.60;69.30
6078;DHT22;3067;49.470;10.394;2023-08-17T04:40:29;20.70;69.20
6078;DHT22;3067;49.470;10.394;2023-08-17T04:42:56;20.70;69.30
6078;DHT22;3067;49.470;10.394;2023-08-17T04:45:23;20.70;69.20
6078;DHT22;3067;49.470;10.394;2023-08-17T04:47:52;20.80;69.10
6078;DHT22;3067;49.470;10.394;2023-08-17T04:50:19;20.70;69.10
6078;DHT22;3067;49.470;10.394;2023-08-17T04:52:46;20.80;69.00
6078;DHT22;3067;49.470;10.394;2023-08-17T04:55:13;20.80;69.00
6078;DHT22;3067;49.470;10.394;2023-08-17T04:57:40;20.90;69.00
6078;DHT22;3067;49.470;10.394;2023-08-17T05:00:08;20.90;69.00
6078;DHT22;3067;49.470;10.394;2023-08-17T05:02:35;21.00;68.90
6078;DHT22;3067;49.470;10.394;2023-08-17T05:05:05;21.00;68.70
6078;DHT22;3067;49.470;10.394;2023-08-17T05:07:33;21.10;68.70
6078;DHT22;3067;49.470;10.394;2023-08-17T05:10:00;20.90;68.80
6078;DHT22;3067;49.470;10.394;2023-08-17T05:12:27;20.50;69.00
6078;DHT22;3067;49.470;10.394;2023-08-17T05:14:54;20.20;70.70
6078;DHT22;3067;49.470;10.394;2023-08-17T05:17:21;20.00;71.70
6078;DHT22;3067;49.470;10.394;2023-08-17T05:19:49;19.90;72.30
6078;DHT22;3067;49.470;10.394;2023-08-17T05:22:18;19.90;72.60
6078;DHT22;3067;49.470;10.394;2023-08-17T05:24:45;19.90;72.70
6078;DHT22;3067;49.470;10.394;2023-08-17T05:27:12;20.00;72.80
6078;DHT22;3067;49.470;10.394;2023-08-17T05:29:39;20.10;72.90
6078;DHT22;3067;49.470;10.394;2023-08-17T05:32:06;20.30;72.70
6078;DHT22;3067;49.470;10.394;2023-08-17T05:34:33;20.50;72.40
6078;DHT22;3067;49.470;10.394;2023-08-17T05:37:00;20.60;72.10
6078;DHT22;3067;49.470;10.394;2023-08-17T05:39:30;20.80;71.60
6078;DHT22;3067;49.470;10.394;2023-08-17T05:41:57;20.80;71.30
6078;DHT22;3067;49.470;10.394;2023-08-17T05:44:24;20.80;71.30
6078;DHT22;3067;49.470;10.394;2023-08-17T05:46:51;20.80;71.50
6078;DHT22;3067;49.470;10.394;2023-08-17T05:49:18;20.90;71.60
6078;DHT22;3067;49.470;10.394;2023-08-17T05:51:45;21.00;71.50
6078;DHT22;3067;49.470;10.394;2023-08-17T05:54:12;21.00;71.50
6078;DHT22;3067;49.470;10.394;2023-08-17T05:56:40;21.10;71.50
6078;DHT22;3067;49.470;10.394;2023-08-17T05:59:10;21.20;71.00
6078;DHT22;3067;49.470;10.394;2023-08-17T06:01:37;21.30;70.70
6078;DHT22;3067;49.470;10.394;2023-08-17T06:04:05;21.30;70.90
6078;DHT22;3067;49.470;10.394;2023-08-17T06:06:32;21.40;70.80
6078;DHT22;3067;49.470;10.394;2023-08-17T06:09:00;21.50;70.60
6078;DHT22;3067;49.470;10.394;2023-08-17T06:11:27;21.50;70.50
6078;DHT22;3067;49.470;10.394;2023-08-17T06:13:55;21.70;70.50
6078;DHT22;3067;49.470;10.394;2023-08-17T06:16:22;21.80;70.30
6078;DHT22;3067;49.470;10.394;2023-08-17T06:18:49;21.90;70.10
6078;DHT22;3067;49.470;10.394;2023-08-17T06:21:16;21.90;69.70
6078;DHT22;3067;49.470;10.394;2023-08-17T06:23:44;22.00;69.50
6078;DHT22;3067;49.470;10.394;2023-08-17T06:26:11;22.10;69.70
6078;DHT22;3067;49.470;10.394;2023-08-17T06:28:38;22.20;69.90
6078;DHT22;3067;49.470;10.394;2023-08-17T06:31:06;22.50;69.00
6078;DHT22;3067;49.470;10.394;2023-08-17T06:33:33;22.60;68.70
6078;DHT22;3067;49.470;10.394;2023-08-17T06:36:00;22.80;68.20
6078;DHT22;3067;49.470;10.394;2023-08-17T06:38:27;22.90;67.80
6078;DHT22;3067;49.470;10.394;2023-08-17T06:40:54;23.10;67.20
6078;DHT22;3067;49.470;10.394;2023-08-17T06:43:21;23.20;66.80
6078;DHT22;3067;49.470;10.394;2023-08-17T06:45:48;23.30;66.80
6078;DHT22;3067;49.470;10.394;2023-08-17T06:48:17;23.40;66.50
6078;DHT22;3067;49.470;10.394;2023-08-17T06:50:44;23.50;66.00
6078;DHT22;3067;49.470;10.394;2023-08-17T06:53:11;23.60;65.90
6078;DHT22;3067;49.470;10.394;2023-08-17T06:55:38;23.70;65.80
6078;DHT22;3067;49.470;10.394;2023-08-17T06:58:05;23.80;65.40
6078;DHT22;3067;49.470;10.394;2023-08-17T07:00:32;23.90;65.60
6078;DHT22;3067;49.470;10.394;2023-08-17T07:03:01;24.00;65.50
6078;DHT22;3067;49.470;10.394;2023-08-17T07:05:31;24.00;65.00
6078;DHT22;3067;49.470;10.394;2023-08-17T07:07:58;24.20;65.00
6078;DHT22;3067;49.470;10.394;2023-08-17T07:10:25;24.20;65.20
6078;DHT22;3067;49.470;10.394;2023-08-17T07:12:52;24.30;64.30
6078;DHT22;3067;49.470;10.394;2023-08-17T07:15:19;24.30;64.50
6078;DHT22;3067;49.470;10.394;2023-08-17T07:17:46;24.40;64.70
6078;DHT22;3067;49.470;10.394;2023-08-17T07:20:13;24.50;64.40
6078;DHT22;3067;49.470;10.394;2023-08-17T07:22:42;24.60;64.10
6078;DHT22;3067;49.470;10.394;2023-08-17T07:25:09;24.60;64.00
6078;DHT22;3067;49.470;10.394;2023-08-17T07:27:36;24.70;64.10
6078;DHT22;3067;49.470;10.394;2023-08-17T07:30:04;24.70;63.70
6078;DHT22;3067;49.470;10.394;2023-08-17T07:32:31;24.80;63.70
6078;DHT22;3067;49.470;10.394;2023-08-17T07:34:58;24.80;64.20
6078;DHT22;3067;49.470;10.394;2023-08-17T07:37:26;24.80;64.30
6078;DHT22;3067;49.470;10.394;2023-08-17T07:39:59;24.90;64.30
6078;DHT22;3067;49.470;10.394;2023-08-17T07:42:29;25.00;64.10
6078;DHT22;3067;49.470;10.394;2023-08-17T07:44:56;25.00;64.10
6078;DHT22;3067;49.470;10.394;2023-08-17T07:47:23;25.00;64.60
6078;DHT22;3067;49.470;10.394;2023-08-17T07:49:50;25.10;64.00
6078;DHT22;3067;49.470;10.394;2023-08-17T07:52:17;25.30;63.90
6078;DHT22;3067;49.470;10.394;2023-08-17T07:54:45;25.50;63.30
6078;DHT22;3067;49.470;10.394;2023-08-17T07:57:14;25.60;63.10
6078;DHT22;3067;49.470;10.394;2023-08-17T07:59:41;25.70;62.70
6078;DHT22;3067;49.470;10.394;2023-08-17T08:02:08;25.80;62.90
6078;DHT22;3067;49.470;10.394;2023-08-17T08:04:35;26.00;62.50
6078;DHT22;3067;49.470;10.394;2023-08-17T08:07:02;26.00;62.20
6078;DHT22;3067;49.470;10.394;2023-08-17T08:09:29;26.10;61.60
6078;DHT22;3067;49.470;10.394;2023-08-17T08:11:56;26.20;61.80
6078;DHT22;3067;49.470;10.394;2023-08-17T08:14:24;26.40;61.60
6078;DHT22;3067;49.470;10.394;2023-08-17T08:16:52;26.40;61.70
6078;DHT22;3067;49.470;10.394;2023-08-17T08:19:19;26.60;61.40
6078;DHT22;3067;49.470;10.394;2023-08-17T08:21:46;26.70;60.70
6078;DHT22;3067;49.470;10.394;2023-08-17T08:24:13;26.90;60.20
6078;DHT22;3067;49.470;10.394;2023-08-17T08:26:40;27.10;59.70
6078;DHT22;3067;49.470;10.394;2023-08-17T08:29:07;27.10;59.80
6078;DHT22;3067;49.470;10.394;2023-08-17T08:31:36;27.20;59.60
6078;DHT22;3067;49.470;10.394;2023-08-17T08:34:04;27.30;59.00
6078;DHT22;3067;49.470;10.394;2023-08-17T08:36:31;27.40;59.00
6078;DHT22;3067;49.470;10.394;2023-08-17T08:38:58;27.40;58.60
6078;DHT22;3067;49.470;10.394;2023-08-17T08:41:26;27.50;58.80
6078;DHT22;3067;49.470;10.394;2023-08-17T08:43:54;27.40;58.80
6078;DHT22;3067;49.470;10.394;2023-08-17T08:46:21;27.50;59.00
6078;DHT22;3067;49.470;10.394;2023-08-17T08:48:52;27.50;58.80
6078;DHT22;3067;49.470;10.394;2023-08-17T08:51:25;27.50;59.00
6078;DHT22;3067;49.470;10.394;2023-08-17T08:53:58;27.80;57.70
6078;DHT22;3067;49.470;10.394;2023-08-17T08:56:29;27.80;57.50
6078;DHT22;3067;49.470;10.394;2023-08-17T08:58:58;27.90;58.00
6078;DHT22;3067;49.470;10.394;2023-08-17T09:01:25;28.00;57.10
6078;DHT22;3067;49.470;10.394;2023-08-17T09:03:57;28.10;56.60
6078;DHT22;3067;49.470;10.394;2023-08-17T09:06:25;28.20;56.30
6078;DHT22;3067;49.470;10.394;2023-08-17T09:08:53;28.20;56.70
6078;DHT22;3067;49.470;10.394;2023-08-17T09:11:20;28.20;56.30
6078;DHT22;3067;49.470;10.394;2023-08-17T09:13:47;28.30;56.40
6078;DHT22;3067;49.470;10.394;2023-08-17T09:16:14;28.30;56.40
6078;DHT22;3067;49.470;10.394;2023-08-17T09:18:42;28.30;55.60
6078;DHT22;3067;49.470;10.394;2023-08-17T09:21:20;28.40;55.40
6078;DHT22;3067;49.470;10.394;2023-08-17T09:23:51;28.50;55.90
6078;DHT22;3067;49.470;10.394;2023-08-17T09:26:19;28.60;55.20
6078;DHT22;3067;49.470;10.394;2023-08-17T09:28:47;28.60;55.90
6078;DHT22;3067;49.470;10.394;2023-08-17T09:31:14;28.70;55.70
6078;DHT22;3067;49.470;10.394;2023-08-17T09:33:41;28.90;55.70
6078;DHT22;3067;49.470;10.394;2023-08-17T09:36:11;29.10;55.00
6078;DHT22;3067;49.470;10.394;2023-08-17T09:38:39;29.20;54.10
6078;DHT22;3067;49.470;10.394;2023-08-17T09:41:06;29.40;53.70
6078;DHT22;3067;49.470;10.394;2023-08-17T09:43:33;29.50;53.70
6078;DHT22;3067;49.470;10.394;2023-08-17T09:46:01;29.70;52.70
6078;DHT22;3067;49.470;10.394;2023-08-17T09:48:29;30.00;52.20
6078;DHT22;3067;49.470;10.394;2023-08-17T09:50:57;30.20;51.70
6078;DHT22;3067;49.470;10.394;2023-08-17T09:53:25;30.30;51.20
6078;DHT22;3067;49.470;10.394;2023-08-17T09:55:53;30.40;50.80
6078;DHT22;3067;49.470;10.394;2023-08-17T09:58:21;30.50;50.10
6078;DHT22;3067;49.470;10.394;2023-08-17T10:00:49;30.60;50.00
6078;DHT22;3067;49.470;10.394;2023-08-17T10:03:17;30.80;50.30
6078;DHT22;3067;49.470;10.394;2023-08-17T10:05:48;30.90;49.80
6078;DHT22;3067;49.470;10.394;2023-08-17T10:08:20;31.10;49.70
6078;DHT22;3067;49.470;10.394;2023-08-17T10:10:49;31.40;49.20
6078;DHT22;3067;49.470;10.394;2023-08-17T10:13:24;31.60;48.50
6078;DHT22;3067;49.470;10.394;2023-08-17T10:16:00;31.80;47.90
6078;DHT22;3067;49.470;10.394;2023-08-17T10:18:33;32.00;47.50
6078;DHT22;3067;49.470;10.394;2023-08-17T10:21:05;32.00;46.40
6078;DHT22;3067;49.470;10.394;2023-08-17T10:23:33;32.20;46.20
6078;DHT22;3067;49.470;10.394;2023-08-17T10:26:03;32.30;44.40
6078;DHT22;3067;49.470;10.394;2023-08-17T10:28:31;32.20;45.70
6078;DHT22;3067;49.470;10.394;2023-08-17T10:30:59;32.40;45.50
6078;DHT22;3067;49.470;10.394;2023-08-17T10:33:26;32.40;44.90
6078;DHT22;3067;49.470;10.394;2023-08-17T10:35:54;32.40;45.30
6078;DHT22;3067;49.470;10.394;2023-08-17T10:38:22;32.40;45.50
6078;DHT22;3067;49.470;10.394;2023-08-17T10:41:09;32.20;46.00
6078;DHT22;3067;49.470;10.394;2023-08-17T10:43:55;32.20;45.70
6078;DHT22;3067;49.470;10.394;2023-08-17T10:46:32;32.30;45.30
6078;DHT22;3067;49.470;10.394;2023-08-17T10:49:02;32.20;45.80
6078;DHT22;3067;49.470;10.394;2023-08-17T10:51:30;32.00;45.80
6078;DHT22;3067;49.470;10.394;2023-08-17T10:53:59;31.80;45.50
6078;DHT22;3067;49.470;10.394;2023-08-17T10:56:29;31.80;46.80
6078;DHT22;3067;49.470;10.394;2023-08-17T10:58:59;31.70;46.00
6078;DHT22;3067;49.470;10.394;2023-08-17T11:01:34;31.40;45.50
6078;DHT22;3067;49.470;10.394;2023-08-17T11:04:12;31.30;45.90
6078;DHT22;3067;49.470;10.394;2023-08-17T11:06:42;31.30;45.30
6078;DHT22;3067;49.470;10.394;2023-08-17T11:09:09;31.30;45.20
6078;DHT22;3067;49.470;10.394;2023-08-17T11:11:39;31.30;45.60
6078;DHT22;3067;49.470;10.394;2023-08-17T11:14:06;31.30;46.20
6078;DHT22;3067;49.470;10.394;2023-08-17T11:16:33;31.40;45.40
6078;DHT22;3067;49.470;10.394;2023-08-17T11:19:00;31.70;45.80
6078;DHT22;3067;49.470;10.394;2023-08-17T11:21:27;31.90;46.30
6078;DHT22;3067;49.470;10.394;2023-08-17T11:23:58;32.10;44.80
6078;DHT22;3067;49.470;10.394;2023-08-17T11:26:25;32.10;44.50
6078;DHT22;3067;49.470;10.394;2023-08-17T11:28:54;32.20;44.00
6078;DHT22;3067;49.470;10.394;2023-08-17T11:31:21;32.20;43.50
6078;DHT22;3067;49.470;10.394;2023-08-17T11:33:48;32.50;43.60
6078;DHT22;3067;49.470;10.394;2023-08-17T11:36:16;32.50;44.10
6078;DHT22;3067;49.470;10.394;2023-08-17T11:38:44;32.70;44.30
6078;DHT22;3067;49.470;10.394;2023-08-17T11:41:12;32.80;43.60
6078;DHT22;3067;49.470;10.394;2023-08-17T11:43:40;33.00;44.60
6078;DHT22;3067;49.470;10.394;2023-08-17T11:46:09;33.40;43.90
6078;DHT22;3067;49.470;10.394;2023-08-17T11:48:37;33.60;42.30
6078;DHT22;3067;49.470;10.394;2023-08-17T11:51:04;33.90;41.00
6078;DHT22;3067;49.470;10.394;2023-08-17T11:53:34;34.00;41.70
6078;DHT22;3067;49.470;10.394;2023-08-17T11:56:01;34.00;41.00
6078;DHT22;3067;49.470;10.394;2023-08-17T11:58:42;34.10;41.90
6078;DHT22;3067;49.470;10.394;2023-08-17T12:01:11;34.10;40.30
6078;DHT22;3067;49.470;10.394;2023-08-17T12:03:39;34.10;39.90
6078;DHT22;3067;49.470;10.394;2023-08-17T12:06:07;34.00;40.70
6078;DHT22;3067;49.470;10.394;2023-08-17T12:08:34;34.00;39.40
6078;DHT22;3067;49.470;10.394;2023-08-17T12:11:02;34.20;38.90
6078;DHT22;3067;49.470;10.394;2023-08-17T12:13:32;34.40;39.00
6078;DHT22;3067;49.470;10.394;2023-08-17T12:15:59;34.60;38.70
6078;DHT22;3067;49.470;10.394;2023-08-17T12:18:28;34.80;38.40
6078;DHT22;3067;49.470;10.394;2023-08-17T12:20:55;34.90;38.20
6078;DHT22;3067;49.470;10.394;2023-08-17T12:23:22;34.90;38.40
6078;DHT22;3067;49.470;10.394;2023-08-17T12:25:53;35.00;36.30
6078;DHT22;3067;49.470;10.394;2023-08-17T12:28:21;35.10;36.60
6078;DHT22;3067;49.470;10.394;2023-08-17T12:30:57;35.30;37.90
6078;DHT22;3067;49.470;10.394;2023-08-17T12:33:25;35.40;36.20
6078;DHT22;3067;49.470;10.394;2023-08-17T12:35:53;35.50;36.20
6078;DHT22;3067;49.470;10.394;2023-08-17T12:38:21;35.30;36.40
6078;DHT22;3067;49.470;10.394;2023-08-17T12:40:48;35.20;36.90
6078;DHT22;3067;49.470;10.394;2023-08-17T12:43:15;34.90;37.10
6078;DHT22;3067;49.470;10.394;2023-08-17T12:45:42;34.70;37.40
6078;DHT22;3067;49.470;10.394;2023-08-17T12:48:09;34.60;37.00
6078;DHT22;3067;49.470;10.394;2023-08-17T12:50:36;34.60;37.50
6078;DHT22;3067;49.470;10.394;2023-08-17T12:53:05;34.80;37.30
6078;DHT22;3067;49.470;10.394;2023-08-17T12:55:32;35.10;36.50
6078;DHT22;3067;49.470;10.394;2023-08-17T12:57:59;35.30;36.60
6078;DHT22;3067;49.470;10.394;2023-08-17T13:00:26;35.50;35.20
6078;DHT22;3067;49.470;10.394;2023-08-17T13:02:53;35.40;35.60
6078;DHT22;3067;49.470;10.394;2023-08-17T13:05:20;35.40;35.70
6078;DHT22;3067;49.470;10.394;2023-08-17T13:07:47;35.40;35.50
6078;DHT22;3067;49.470;10.394;2023-08-17T13:10:16;35.40;35.90
6078;DHT22;3067;49.470;10.394;2023-08-17T13:12:43;35.30;36.80
6078;DHT22;3067;49.470;10.394;2023-08-17T13:15:10;35.20;36.70
6078;DHT22;3067;49.470;10.394;2023-08-17T13:17:37;35.10;37.90
6078;DHT22;3067;49.470;10.394;2023-08-17T13:20:05;35.00;37.00
6078;DHT22;3067;49.470;10.394;2023-08-17T13:22:34;35.00;37.60
6078;DHT22;3067;49.470;10.394;2023-08-17T13:25:01;34.90;38.00
6078;DHT22;3067;49.470;10.394;2023-08-17T13:27:29;34.80;38.10
6078;DHT22;3067;49.470;10.394;2023-08-17T13:29:56;34.50;38.20
6078;DHT22;3067;49.470;10.394;2023-08-17T13:32:24;34.30;39.70
6078;DHT22;3067;49.470;10.394;2023-08-17T13:34:52;34.20;40.10
6078;DHT22;3067;49.470;10.394;2023-08-17T13:37:19;34.20;39.90
6078;DHT22;3067;49.470;10.394;2023-08-17T13:39:46;34.00;39.70
6078;DHT22;3067;49.470;10.394;2023-08-17T13:42:13;33.90;40.20
6078;DHT22;3067;49.470;10.394;2023-08-17T13:44:42;33.80;40.70
6078;DHT22;3067;49.470;10.394;2023-08-17T13:47:09;33.70;41.20
6078;DHT22;3067;49.470;10.394;2023-08-17T13:49:36;33.80;46.40
6078;DHT22;3067;49.470;10.394;2023-08-17T13:52:03;33.70;52.60
6078;DHT22;3067;49.470;10.394;2023-08-17T13:54:31;33.60;53.40
6078;DHT22;3067;49.470;10.394;2023-08-17T13:56:58;33.50;52.50
6078;DHT22;3067;49.470;10.394;2023-08-17T13:59:25;33.30;54.00
6078;DHT22;3067;49.470;10.394;2023-08-17T14:01:54;33.00;54.30
6078;DHT22;3067;49.470;10.394;2023-08-17T14:30:10;27.70;59.60
6078;DHT22;3067;49.470;10.394;2023-08-17T14:32:38;27.00;59.30
6078;DHT22;3067;49.470;10.394;2023-08-17T14:35:05;26.10;60.80
6078;DHT22;3067;49.470;10.394;2023-08-17T14:37:49;25.20;57.60
6078;DHT22;3067;49.470;10.394;2023-08-17T14:40:16;23.70;63.60
6078;DHT22;3067;49.470;10.394;2023-08-17T14:42:44;22.70;65.90
6078;DHT22;3067;49.470;10.394;2023-08-17T14:45:17;21.40;64.40
6078;DHT22;3067;49.470;10.394;2023-08-17T14:47:46;20.90;67.70
6078;DHT22;3067;49.470;10.394;2023-08-17T14:50:13;20.30;73.10
6078;DHT22;3067;49.470;10.394;2023-08-17T14:52:40;20.00;73.10
6078;DHT22;3067;49.470;10.394;2023-08-17T14:55:08;19.70;77.00
6078;DHT22;3067;49.470;10.394;2023-08-17T14:57:36;19.70;74.40
6078;DHT22;3067;49.470;10.394;2023-08-17T15:00:04;19.50;76.70
6078;DHT22;3067;49.470;10.394;2023-08-17T15:02:32;19.50;77.00
6078;DHT22;3067;49.470;10.394;2023-08-17T15:04:59;19.50;76.70
6078;DHT22;3067;49.470;10.394;2023-08-17T15:07:26;19.50;74.60
6078;DHT22;3067;49.470;10.394;2023-08-17T15:09:53;19.50;74.90
6078;DHT22;3067;49.470;10.394;2023-08-17T15:12:21;19.50;78.40
6078;DHT22;3067;49.470;10.394;2023-08-17T15:14:48;19.70;81.00
6078;DHT22;3067;49.470;10.394;2023-08-17T15:17:15;19.90;77.10
6078;DHT22;3067;49.470;10.394;2023-08-17T15:19:43;19.90;74.90
6078;DHT22;3067;49.470;10.394;2023-08-17T15:22:10;19.90;75.40
6078;DHT22;3067;49.470;10.394;2023-08-17T15:24:37;20.00;76.90
6078;DHT22;3067;49.470;10.394;2023-08-17T15:27:04;20.20;75.40
6078;DHT22;3067;49.470;10.394;2023-08-17T15:29:31;20.30;73.70
6078;DHT22;3067;49.470;10.394;2023-08-17T15:31:58;20.50;73.50
6078;DHT22;3067;49.470;10.394;2023-08-17T15:34:25;20.50;73.50
6078;DHT22;3067;49.470;10.394;2023-08-17T15:36:54;20.50;73.50
6078;DHT22;3067;49.470;10.394;2023-08-17T15:39:21;20.50;73.80
6078;DHT22;3067;49.470;10.394;2023-08-17T15:41:48;20.50;74.00
6078;DHT22;3067;49.470;10.394;2023-08-17T15:44:15;20.60;75.10
6078;DHT22;3067;49.470;10.394;2023-08-17T15:46:42;20.60;75.70
6078;DHT22;3067;49.470;10.394;2023-08-17T15:49:09;20.70;75.90
6078;DHT22;3067;49.470;10.394;2023-08-17T15:51:37;20.80;74.90
6078;DHT22;3067;49.470;10.394;2023-08-17T15:54:07;20.80;74.40
6078;DHT22;3067;49.470;10.394;2023-08-17T15:56:34;20.80;73.20
6078;DHT22;3067;49.470;10.394;2023-08-17T15:59:01;20.80;74.70
6078;DHT22;3067;49.470;10.394;2023-08-17T16:01:28;20.70;74.10
6078;DHT22;3067;49.470;10.394;2023-08-17T16:03:55;20.60;74.70
6078;DHT22;3067;49.470;10.394;2023-08-17T16:06:22;20.60;74.30
6078;DHT22;3067;49.470;10.394;2023-08-17T16:08:49;20.70;74.10
6078;DHT22;3067;49.470;10.394;2023-08-17T16:11:18;20.70;74.20
6078;DHT22;3067;49.470;10.394;2023-08-17T16:13:45;20.80;75.00
6078;DHT22;3067;49.470;10.394;2023-08-17T16:16:12;20.90;73.90